Time;durP1;ratioP1;P1;durP2;ratioP2;P2;SDS_P1;SDS_P2;PMS_P1;PMS_P2;Temp;Humidity;BMP_temperature;BMP_pressure;BME280_temperature;BME280_humidity;BME280_pressure;Samples;Min_cycle;Max_cycle;Signal;HPM_P1;HPM_P2
2021/07/11 00:00:24;;;;;;;16.95;10.68;;;;;;;;;;6214496;23;20055;-53
2021/07/11 00:02:50;;;;;;;19.02;11.45;;;;;;;;;;6214429;23;20004;-51
2021/07/11 00:05:18;;;;;;;21.20;10.95;;;;;;;;;;6213706;23;20062;-57
2021/07/11 00:07:44;;;;;;;15.55;10.45;;;;;;;;;;6213967;23;20008;-54
2021/07/11 00:10:10;;;;;;;14.13;9.38;;;;;;;;;;6214227;23;20032;-55
2021/07/11 00:12:37;;;;;;;15.38;9.07;;;;;;;;;;6214743;23;20098;-56
2021/07/11 00:15:04;;;;;;;19.75;9.02;;;;;;;;;;6214025;23;20012;-56
2021/07/11 00:17:30;;;;;;;12.65;7.97;;;;;;;;;;6214272;23;20004;-54
2021/07/11 00:19:56;;;;;;;12.75;8.32;;;;;;;;;;6213126;23;20424;-53
2021/07/11 00:22:22;;;;;;;12.15;8.13;;;;;;;;;;6214686;23;20317;-53
2021/07/11 00:24:50;;;;;;;10.60;8.85;;;;;;;;;;6214313;23;20000;-53
2021/07/11 00:27:16;;;;;;;11.48;8.18;;;;;;;;;;6214307;23;20077;-53
2021/07/11 00:29:42;;;;;;;18.15;7.80;;;;;;;;;;6213933;23;20016;-55
2021/07/11 00:32:08;;;;;;;9.35;8.15;;;;;;;;;;6214119;23;20008;-54
2021/07/11 00:34:35;;;;;;;14.68;8.15;;;;;;;;;;6213573;23;20079;-55
2021/07/11 00:37:01;;;;;;;12.35;7.60;;;;;;;;;;6216131;23;20001;-55
2021/07/11 00:39:27;;;;;;;10.25;6.70;;;;;;;;;;6189075;23;20012;-53
2021/07/11 00:41:53;;;;;;;11.38;6.78;;;;;;;;;;6216061;23;20032;-52
2021/07/11 00:44:19;;;;;;;12.00;7.90;;;;;;;;;;6216125;23;20005;-55
2021/07/11 00:46:45;;;;;;;12.45;7.57;;;;;;;;;;6216222;23;19996;-55
2021/07/11 00:49:11;;;;;;;14.93;8.38;;;;;;;;;;6214744;23;20058;-54
2021/07/11 00:51:37;;;;;;;13.02;8.48;;;;;;;;;;6216145;23;20103;-55
2021/07/11 00:54:03;;;;;;;11.88;7.63;;;;;;;;;;6216097;23;20040;-56
2021/07/11 00:56:30;;;;;;;12.05;7.95;;;;;;;;;;6215777;23;20009;-55
2021/07/11 00:58:56;;;;;;;9.98;7.13;;;;;;;;;;6215447;23;20036;-54
2021/07/11 01:01:41;;;;;;;11.13;7.38;;;;;;;;;;6215606;23;20000;-52
2021/07/11 01:04:17;;;;;;;10.38;8.02;;;;;;;;;;6215756;23;20075;-52
2021/07/11 01:06:44;;;;;;;9.20;7.20;;;;;;;;;;6215467;23;20325;-56
2021/07/11 01:09:11;;;;;;;9.10;7.43;;;;;;;;;;6215195;23;20080;-54
2021/07/11 01:11:44;;;;;;;12.90;7.50;;;;;;;;;;6215874;23;20435;-51
2021/07/11 01:14:10;;;;;;;22.30;8.67;;;;;;;;;;6215768;23;20012;-56
2021/07/11 01:16:37;;;;;;;19.75;10.32;;;;;;;;;;6215599;23;20036;-54
2021/07/11 01:19:08;;;;;;;16.73;10.68;;;;;;;;;;6214865;23;20147;-51
2021/07/11 01:21:37;;;;;;;14.57;9.82;;;;;;;;;;6215517;23;20505;-52
2021/07/11 01:24:07;;;;;;;13.40;9.15;;;;;;;;;;6215609;23;20079;-53
2021/07/11 01:26:34;;;;;;;16.48;9.57;;;;;;;;;;6215423;23;20425;-55
2021/07/11 01:29:00;;;;;;;12.57;8.82;;;;;;;;;;6215270;23;20075;-52
2021/07/11 01:31:27;;;;;;;15.25;9.07;;;;;;;;;;6215834;23;20386;-54
2021/07/11 01:33:54;;;;;;;14.18;7.93;;;;;;;;;;6215514;23;20032;-54
2021/07/11 01:36:21;;;;;;;15.18;8.75;;;;;;;;;;6215412;23;20001;-56
2021/07/11 01:38:48;;;;;;;13.88;8.88;;;;;;;;;;6215027;23;20103;-54
2021/07/11 01:41:14;;;;;;;13.27;7.82;;;;;;;;;;6215060;23;20083;-53
2021/07/11 01:43:40;;;;;;;12.27;8.68;;;;;;;;;;6215329;23;20000;-56
2021/07/11 01:46:08;;;;;;;12.73;8.85;;;;;;;;;;6215351;23;20462;-53
2021/07/11 01:48:34;;;;;;;11.35;8.20;;;;;;;;;;6214255;23;20072;-52
2021/07/11 01:51:01;;;;;;;11.93;8.75;;;;;;;;;;6215077;23;20753;-55
2021/07/11 01:53:35;;;;;;;11.32;7.93;;;;;;;;;;6215374;23;20369;-53
2021/07/11 01:56:02;;;;;;;16.80;9.15;;;;;;;;;;6215310;23;20015;-53
2021/07/11 01:58:28;;;;;;;13.20;8.52;;;;;;;;;;6214722;23;20063;-53
2021/07/11 02:00:55;;;;;;;11.57;7.90;;;;;;;;;;6215290;23;20009;-51
2021/07/11 02:03:22;;;;;;;13.13;8.50;;;;;;;;;;6215416;23;20004;-55
2021/07/11 02:05:49;;;;;;;12.98;7.50;;;;;;;;;;6214795;23;20143;-55
2021/07/11 02:08:15;;;;;;;13.75;8.05;;;;;;;;;;6214318;23;20000;-56
2021/07/11 02:10:45;;;;;;;12.00;8.50;;;;;;;;;;6215020;23;20724;-55
2021/07/11 02:13:13;;;;;;;13.32;8.63;;;;;;;;;;6215232;23;20079;-53
2021/07/11 02:15:43;;;;;;;11.77;8.90;;;;;;;;;;6215186;23;20064;-56
2021/07/11 02:18:10;;;;;;;12.77;9.05;;;;;;;;;;6214541;23;20509;-56
2021/07/11 02:20:36;;;;;;;12.63;8.73;;;;;;;;;;6214774;23;20088;-54
2021/07/11 02:23:02;;;;;;;14.65;9.18;;;;;;;;;;6215020;23;20484;-54
2021/07/11 02:25:28;;;;;;;14.98;9.48;;;;;;;;;;6214851;23;20092;-56
2021/07/11 02:27:55;;;;;;;12.65;8.82;;;;;;;;;;6214868;23;19997;-54
2021/07/11 02:30:28;;;;;;;10.77;9.25;;;;;;;;;;6215011;23;20083;-53
2021/07/11 02:32:56;;;;;;;12.73;9.30;;;;;;;;;;6215373;23;20068;-52
2021/07/11 02:35:34;;;;;;;13.93;9.70;;;;;;;;;;6214759;23;20009;-54
2021/07/11 02:38:01;;;;;;;14.95;9.73;;;;;;;;;;6214103;23;20008;-55
2021/07/11 02:40:27;;;;;;;14.55;8.98;;;;;;;;;;6215312;23;20013;-55
2021/07/11 02:42:57;;;;;;;12.27;9.35;;;;;;;;;;6214805;23;20023;-56
2021/07/11 02:45:23;;;;;;;18.15;9.68;;;;;;;;;;6215173;23;20317;-51
2021/07/11 02:47:50;;;;;;;10.73;8.00;;;;;;;;;;6213976;23;20007;-52
2021/07/11 02:50:17;;;;;;;14.40;9.20;;;;;;;;;;6214138;23;20052;-55
2021/07/11 02:52:43;;;;;;;12.05;8.85;;;;;;;;;;6214844;23;20357;-56
2021/07/11 02:55:12;;;;;;;14.60;9.32;;;;;;;;;;6215066;23;20011;-54
2021/07/11 02:57:39;;;;;;;15.43;9.70;;;;;;;;;;6214427;23;20104;-56
2021/07/11 03:00:06;;;;;;;14.20;8.55;;;;;;;;;;6214032;23;20035;-52
2021/07/11 03:02:33;;;;;;;10.85;9.10;;;;;;;;;;6214262;23;20054;-54
2021/07/11 03:05:00;;;;;;;14.15;8.75;;;;;;;;;;6214405;23;20075;-53
2021/07/11 03:07:25;;;;;;;11.85;8.35;;;;;;;;;;6214562;23;20402;-57
2021/07/11 03:09:51;;;;;;;10.68;8.73;;;;;;;;;;6214015;23;20051;-56
2021/07/11 03:12:18;;;;;;;10.35;8.27;;;;;;;;;;6214488;23;20418;-52
2021/07/11 03:14:47;;;;;;;13.23;9.40;;;;;;;;;;6214359;23;20367;-52
2021/07/11 03:17:14;;;;;;;12.20;8.50;;;;;;;;;;6214587;23;20648;-54
2021/07/11 03:19:41;;;;;;;16.02;8.63;;;;;;;;;;6213733;23;20005;-52
2021/07/11 03:22:07;;;;;;;10.52;8.50;;;;;;;;;;6214567;23;20011;-52
2021/07/11 03:24:35;;;;;;;13.60;8.68;;;;;;;;;;6214525;23;20104;-55
2021/07/11 03:27:02;;;;;;;12.35;8.57;;;;;;;;;;6214423;23;20076;-51
2021/07/11 03:29:39;;;;;;;14.02;9.35;;;;;;;;;;6214156;23;20000;-55
2021/07/11 03:32:05;;;;;;;15.52;9.70;;;;;;;;;;6214602;23;20011;-55
2021/07/11 03:34:33;;;;;;;14.40;9.15;;;;;;;;;;6214209;23;20465;-53
2021/07/11 03:37:07;;;;;;;13.88;8.80;;;;;;;;;;6214523;23;20005;-55
2021/07/11 03:39:38;;;;;;;12.02;8.95;;;;;;;;;;6214139;23;20011;-55
2021/07/11 03:42:05;;;;;;;11.10;7.72;;;;;;;;;;6214521;23;20400;-52
2021/07/11 03:44:32;;;;;;;11.70;9.05;;;;;;;;;;6214218;23;20075;-55
2021/07/11 03:46:58;;;;;;;12.30;8.93;;;;;;;;;;6214428;23;20009;-52
2021/07/11 03:49:25;;;;;;;13.65;8.93;;;;;;;;;;6213309;23;20044;-54
2021/07/11 03:51:51;;;;;;;18.25;9.05;;;;;;;;;;6214736;23;20059;-53
2021/07/11 03:54:17;;;;;;;11.48;8.77;;;;;;;;;;6214393;23;20398;-51
2021/07/11 03:56:45;;;;;;;14.52;9.63;;;;;;;;;;6213958;23;20008;-53
2021/07/11 03:59:11;;;;;;;11.65;8.70;;;;;;;;;;6213699;23;20005;-54
2021/07/11 04:01:38;;;;;;;11.50;8.88;;;;;;;;;;6214095;23;20063;-52
2021/07/11 04:04:07;;;;;;;11.52;8.85;;;;;;;;;;6214437;23;20081;-55
2021/07/11 04:06:33;;;;;;;13.82;8.95;;;;;;;;;;6213893;23;20321;-56
2021/07/11 04:09:01;;;;;;;12.07;8.88;;;;;;;;;;6213724;23;20056;-52
2021/07/11 04:11:27;;;;;;;16.30;9.95;;;;;;;;;;6215656;23;20071;-55
2021/07/11 04:13:53;;;;;;;14.65;9.90;;;;;;;;;;6216669;23;20430;-57
2021/07/11 04:16:23;;;;;;;15.13;8.65;;;;;;;;;;6216283;23;20139;-56
2021/07/11 04:18:50;;;;;;;11.10;8.90;;;;;;;;;;6215920;23;20004;-53
2021/07/11 04:21:16;;;;;;;14.82;9.38;;;;;;;;;;6216248;23;20368;-54
2021/07/11 04:23:43;;;;;;;11.02;8.45;;;;;;;;;;6216075;23;20402;-55
2021/07/11 04:26:09;;;;;;;14.75;9.65;;;;;;;;;;6216346;23;20024;-51
2021/07/11 04:28:37;;;;;;;14.02;9.85;;;;;;;;;;6215805;23;20352;-55
2021/07/11 04:31:04;;;;;;;13.68;10.90;;;;;;;;;;6215893;23;20087;-54
2021/07/11 04:33:31;;;;;;;14.88;11.05;;;;;;;;;;6216676;23;20001;-53
2021/07/11 04:35:57;;;;;;;18.30;12.07;;;;;;;;;;6215637;23;20508;-54
2021/07/11 04:38:23;;;;;;;16.10;11.20;;;;;;;;;;6215308;23;20055;-55
2021/07/11 04:40:49;;;;;;;14.15;10.13;;;;;;;;;;6215769;23;20009;-54
2021/07/11 04:43:17;;;;;;;13.35;9.80;;;;;;;;;;6216505;23;20437;-52
2021/07/11 04:45:43;;;;;;;11.27;9.32;;;;;;;;;;6216381;23;20552;-55
2021/07/11 04:48:09;;;;;;;11.55;9.35;;;;;;;;;;6215552;23;20470;-54
2021/07/11 04:50:35;;;;;;;10.25;8.43;;;;;;;;;;6215270;23;20104;-51
2021/07/11 04:53:01;;;;;;;10.27;8.23;;;;;;;;;;6215890;23;20060;-56
2021/07/11 04:55:27;;;;;;;11.65;9.07;;;;;;;;;;6215847;23;20008;-55
2021/07/11 04:57:53;;;;;;;13.55;9.05;;;;;;;;;;6215493;23;20417;-53
2021/07/11 05:00:20;;;;;;;11.30;8.52;;;;;;;;;;6215754;23;20005;-52
2021/07/11 05:02:46;;;;;;;12.68;8.30;;;;;;;;;;6216300;23;20001;-52
2021/07/11 05:05:12;;;;;;;10.57;8.70;;;;;;;;;;6215675;23;20001;-53
2021/07/11 05:07:39;;;;;;;10.93;9.13;;;;;;;;;;6215145;23;20000;-55
2021/07/11 05:10:05;;;;;;;10.50;9.05;;;;;;;;;;6215987;23;20001;-56
2021/07/11 05:12:32;;;;;;;11.00;8.77;;;;;;;;;;6215995;23;20023;-54
2021/07/11 05:14:58;;;;;;;11.98;9.43;;;;;;;;;;6215664;23;20099;-53
2021/07/11 05:17:24;;;;;;;12.77;9.27;;;;;;;;;;6215705;23;20000;-53
2021/07/11 05:19:50;;;;;;;10.70;8.98;;;;;;;;;;6214672;23;20080;-54
2021/07/11 05:22:15;;;;;;;10.75;9.07;;;;;;;;;;6214942;23;20357;-53
2021/07/11 05:24:42;;;;;;;9.77;8.15;;;;;;;;;;6215477;23;20008;-53
2021/07/11 05:27:07;;;;;;;11.65;9.02;;;;;;;;;;6215883;23;20007;-57
2021/07/11 05:29:34;;;;;;;10.90;8.80;;;;;;;;;;6215045;23;20001;-56
2021/07/11 05:32:00;;;;;;;9.32;7.78;;;;;;;;;;6215668;23;20051;-57
2021/07/11 05:34:26;;;;;;;9.90;8.63;;;;;;;;;;6215533;23;20032;-56
2021/07/11 05:36:52;;;;;;;10.50;8.68;;;;;;;;;;6215244;23;20032;-54
2021/07/11 05:39:19;;;;;;;12.30;8.07;;;;;;;;;;6188501;23;20031;-56
2021/07/11 05:41:45;;;;;;;10.05;8.35;;;;;;;;;;6215405;23;20001;-52
2021/07/11 05:44:11;;;;;;;11.45;8.30;;;;;;;;;;6215904;23;20024;-54
2021/07/11 05:46:37;;;;;;;10.15;7.97;;;;;;;;;;6215410;23;20011;-56
2021/07/11 05:49:03;;;;;;;8.18;7.30;;;;;;;;;;6214246;23;20004;-51
2021/07/11 05:51:29;;;;;;;9.05;7.15;;;;;;;;;;6214827;23;20011;-53
2021/07/11 05:53:55;;;;;;;10.27;7.60;;;;;;;;;;6215416;23;20000;-52
2021/07/11 05:56:21;;;;;;;8.88;6.75;;;;;;;;;;6215566;23;20059;-52
2021/07/11 05:58:47;;;;;;;9.90;7.00;;;;;;;;;;6215012;23;20031;-52
2021/07/11 06:01:13;;;;;;;13.30;6.82;;;;;;;;;;6215154;23;20008;-51
2021/07/11 06:03:39;;;;;;;8.10;6.63;;;;;;;;;;6214549;23;20411;-55
2021/07/11 06:06:06;;;;;;;10.23;6.68;;;;;;;;;;6215045;23;20005;-55
2021/07/11 06:08:32;;;;;;;8.07;6.22;;;;;;;;;;6214987;23;20001;-55
2021/07/11 06:10:58;;;;;;;8.65;6.15;;;;;;;;;;6215320;23;20013;-53
2021/07/11 06:13:24;;;;;;;9.00;6.38;;;;;;;;;;6215310;23;20054;-53
2021/07/11 06:15:50;;;;;;;13.85;7.38;;;;;;;;;;6215463;23;20351;-55
2021/07/11 06:18:16;;;;;;;8.40;6.50;;;;;;;;;;6214609;23;20008;-55
2021/07/11 06:20:42;;;;;;;7.13;6.00;;;;;;;;;;6214911;23;20008;-52
2021/07/11 06:23:09;;;;;;;10.13;6.22;;;;;;;;;;6215204;23;20059;-52
2021/07/11 06:25:35;;;;;;;6.60;5.28;;;;;;;;;;6215221;23;19996;-53
2021/07/11 06:28:01;;;;;;;15.20;6.32;;;;;;;;;;6214634;23;20051;-52
2021/07/11 06:30:27;;;;;;;6.15;5.53;;;;;;;;;;6214794;23;20015;-53
2021/07/11 06:32:53;;;;;;;8.40;5.70;;;;;;;;;;6214426;23;20004;-55
2021/07/11 06:35:20;;;;;;;13.02;5.68;;;;;;;;;;6215217;23;20011;-55
2021/07/11 06:37:47;;;;;;;5.40;4.65;;;;;;;;;;6214571;23;20078;-55
2021/07/11 06:40:14;;;;;;;11.50;5.30;;;;;;;;;;6214272;23;20001;-56
2021/07/11 06:42:41;;;;;;;5.07;4.55;;;;;;;;;;6215006;23;20005;-55
2021/07/11 06:45:07;;;;;;;6.50;4.65;;;;;;;;;;6214954;23;20026;-56
2021/07/11 06:47:33;;;;;;;7.25;4.43;;;;;;;;;;6213793;23;20003;-51
2021/07/11 06:50:00;;;;;;;5.60;4.45;;;;;;;;;;6214359;23;20009;-55
2021/07/11 06:52:26;;;;;;;5.85;4.50;;;;;;;;;;6215199;23;20087;-51
2021/07/11 06:54:52;;;;;;;6.90;4.82;;;;;;;;;;6214768;23;20301;-51
2021/07/11 06:57:18;;;;;;;7.43;4.90;;;;;;;;;;6215379;23;20413;-54
2021/07/11 06:59:44;;;;;;;6.60;4.75;;;;;;;;;;6213909;23;20001;-52
2021/07/11 07:02:10;;;;;;;5.40;4.63;;;;;;;;;;6214442;23;20005;-54
2021/07/11 07:04:37;;;;;;;6.30;4.63;;;;;;;;;;6214291;23;20004;-55
2021/07/11 07:07:03;;;;;;;7.32;5.20;;;;;;;;;;6213995;23;20039;-53
2021/07/11 07:09:29;;;;;;;7.97;4.93;;;;;;;;;;6213747;23;20005;-52
2021/07/11 07:11:55;;;;;;;4.97;4.38;;;;;;;;;;6214359;23;20071;-52
2021/07/11 07:14:21;;;;;;;11.93;4.90;;;;;;;;;;6214602;23;20005;-55
2021/07/11 07:16:47;;;;;;;4.97;4.40;;;;;;;;;;6213513;23;20012;-53
2021/07/11 07:19:13;;;;;;;5.57;4.57;;;;;;;;;;6214587;23;20008;-54
2021/07/11 07:21:39;;;;;;;6.43;4.10;;;;;;;;;;6213799;23;20043;-53
2021/07/11 07:24:05;;;;;;;5.78;4.65;;;;;;;;;;6214770;23;20046;-52
2021/07/11 07:26:31;;;;;;;7.32;4.53;;;;;;;;;;6214182;23;20000;-53
2021/07/11 07:28:57;;;;;;;5.45;4.32;;;;;;;;;;6213813;23;20433;-53
2021/07/11 07:31:23;;;;;;;5.03;4.15;;;;;;;;;;6214066;23;20007;-56
2021/07/11 07:33:49;;;;;;;7.78;4.45;;;;;;;;;;6214164;23;20382;-52
2021/07/11 07:36:15;;;;;;;6.57;4.75;;;;;;;;;;6214104;23;20008;-51
2021/07/11 07:38:41;;;;;;;5.30;3.67;;;;;;;;;;6214095;23;20004;-52
2021/07/11 07:41:07;;;;;;;5.70;3.97;;;;;;;;;;6213838;23;20008;-55
2021/07/11 07:43:33;;;;;;;4.65;3.58;;;;;;;;;;6214174;23;20444;-51
2021/07/11 07:45:59;;;;;;;4.60;3.50;;;;;;;;;;6214091;23;20000;-52
2021/07/11 07:48:25;;;;;;;5.70;3.10;;;;;;;;;;6213458;23;19997;-56
2021/07/11 07:50:51;;;;;;;3.63;2.58;;;;;;;;;;6213894;23;20013;-54
2021/07/11 07:53:18;;;;;;;5.13;2.75;;;;;;;;;;6187746;23;20092;-54
2021/07/11 07:55:44;;;;;;;3.15;2.72;;;;;;;;;;6214718;23;20335;-57
2021/07/11 07:58:10;;;;;;;5.85;2.72;;;;;;;;;;6213367;23;20461;-55
2021/07/11 08:00:36;;;;;;;3.38;2.50;;;;;;;;;;6214075;23;20009;-55
2021/07/11 08:03:02;;;;;;;8.95;2.50;;;;;;;;;;6213391;23;20007;-53
2021/07/11 08:05:28;;;;;;;3.67;2.45;;;;;;;;;;6214304;23;20001;-53
2021/07/11 08:07:54;;;;;;;3.47;2.42;;;;;;;;;;6214221;23;20008;-54
2021/07/11 08:10:20;;;;;;;2.92;2.05;;;;;;;;;;6186799;23;20317;-54
2021/07/11 08:12:47;;;;;;;3.50;2.10;;;;;;;;;;6214074;23;20000;-55
2021/07/11 08:15:16;;;;;;;2.67;2.42;;;;;;;;;;6213668;23;20004;-56
2021/07/11 08:17:42;;;;;;;3.28;1.98;;;;;;;;;;6214019;23;20000;-54
2021/07/11 08:20:08;;;;;;;3.35;1.90;;;;;;;;;;6213546;23;20032;-55
2021/07/11 08:22:34;;;;;;;2.58;2.38;;;;;;;;;;6213678;23;20001;-55
2021/07/11 08:25:00;;;;;;;3.35;2.17;;;;;;;;;;6213688;23;20011;-57
2021/07/11 08:27:26;;;;;;;3.33;2.03;;;;;;;;;;6213628;23;19997;-56
2021/07/11 08:29:52;;;;;;;2.05;1.80;;;;;;;;;;6212895;23;20075;-53
2021/07/11 08:32:19;;;;;;;2.92;1.75;;;;;;;;;;6212398;23;20005;-52
2021/07/11 08:34:45;;;;;;;2.50;2.00;;;;;;;;;;6211940;23;20119;-55
2021/07/11 08:37:11;;;;;;;4.05;2.38;;;;;;;;;;6212750;23;20001;-54
2021/07/11 08:39:37;;;;;;;3.22;2.45;;;;;;;;;;6212488;23;20043;-51
2021/07/11 08:42:03;;;;;;;2.95;2.20;;;;;;;;;;6212763;23;20063;-55
2021/07/11 08:44:29;;;;;;;2.58;2.22;;;;;;;;;;6212827;23;20071;-55
2021/07/11 08:46:55;;;;;;;2.65;1.90;;;;;;;;;;6212371;23;20001;-53
2021/07/11 08:49:22;;;;;;;3.00;2.50;;;;;;;;;;6211957;23;20005;-56
2021/07/11 08:51:48;;;;;;;2.70;2.40;;;;;;;;;;6213820;23;20009;-54
2021/07/11 08:54:15;;;;;;;2.35;2.05;;;;;;;;;;6213531;23;20012;-55
2021/07/11 08:56:41;;;;;;;8.27;2.60;;;;;;;;;;6214477;23;20005;-54
2021/07/11 08:59:07;;;;;;;3.13;2.40;;;;;;;;;;6215355;23;20074;-57
2021/07/11 09:01:33;;;;;;;5.28;2.38;;;;;;;;;;6215627;23;20004;-51
2021/07/11 09:04:00;;;;;;;2.33;2.10;;;;;;;;;;6215237;23;20291;-54
2021/07/11 09:06:26;;;;;;;7.15;2.25;;;;;;;;;;6215713;23;20000;-54
2021/07/11 09:08:58;;;;;;;4.45;2.50;;;;;;;;;;6215359;23;20031;-52
2021/07/11 09:11:24;;;;;;;3.58;2.55;;;;;;;;;;6214356;23;20084;-54
2021/07/11 09:13:52;;;;;;;3.45;2.63;;;;;;;;;;6215812;23;20004;-55
2021/07/11 09:16:17;;;;;;;6.53;2.65;;;;;;;;;;6216180;23;20030;-51
2021/07/11 09:18:43;;;;;;;3.67;2.63;;;;;;;;;;6214902;23;20410;-53
2021/07/11 09:21:13;;;;;;;2.40;2.20;;;;;;;;;;6214776;23;20008;-55
2021/07/11 09:23:40;;;;;;;3.08;2.00;;;;;;;;;;6215916;23;20000;-55
2021/07/11 09:26:07;;;;;;;3.97;2.60;;;;;;;;;;6214774;23;20001;-54
2021/07/11 09:28:37;;;;;;;4.57;2.78;;;;;;;;;;6215164;23;20088;-57
2021/07/11 09:31:05;;;;;;;4.90;2.10;;;;;;;;;;6215600;23;20513;-57
2021/07/11 09:33:31;;;;;;;4.30;2.60;;;;;;;;;;6215178;23;20413;-56
2021/07/11 09:36:05;;;;;;;4.00;2.05;;;;;;;;;;6215665;23;20011;-52
2021/07/11 09:38:31;;;;;;;1.63;1.52;;;;;;;;;;6214636;23;20080;-54
2021/07/11 09:40:57;;;;;;;2.83;2.10;;;;;;;;;;6214375;23;20063;-57
2021/07/11 09:43:23;;;;;;;5.88;2.47;;;;;;;;;;6215583;23;20394;-57
2021/07/11 09:45:49;;;;;;;3.97;1.88;;;;;;;;;;6214997;23;20001;-55
2021/07/11 09:48:16;;;;;;;2.83;2.10;;;;;;;;;;6214906;23;20005;-53
2021/07/11 09:50:41;;;;;;;3.13;2.10;;;;;;;;;;6214982;23;20531;-54
2021/07/11 09:53:08;;;;;;;2.58;1.92;;;;;;;;;;6215139;23;20004;-54
2021/07/11 09:55:35;;;;;;;3.85;2.33;;;;;;;;;;6215652;23;20448;-55
2021/07/11 09:58:04;;;;;;;3.38;1.90;;;;;;;;;;6214912;23;20012;-52
2021/07/11 10:00:48;;;;;;;2.55;2.28;;;;;;;;;;6215254;23;20003;-52
2021/07/11 10:03:15;;;;;;;4.60;1.83;;;;;;;;;;6215421;23;20004;-53
2021/07/11 10:05:42;;;;;;;2.40;1.77;;;;;;;;;;6215515;23;20023;-55
2021/07/11 10:08:08;;;;;;;3.47;1.90;;;;;;;;;;6214842;23;20007;-52
2021/07/11 10:10:35;;;;;;;4.65;1.90;;;;;;;;;;6214944;23;20004;-55
2021/07/11 10:13:02;;;;;;;3.00;2.25;;;;;;;;;;6214585;23;20054;-56
2021/07/11 10:15:29;;;;;;;4.40;2.30;;;;;;;;;;6214980;23;20012;-55
2021/07/11 10:18:06;;;;;;;2.28;1.77;;;;;;;;;;6214642;23;20103;-55
2021/07/11 10:20:35;;;;;;;3.30;1.90;;;;;;;;;;6214940;23;20445;-53
2021/07/11 10:23:02;;;;;;;2.28;1.88;;;;;;;;;;6214839;23;19997;-54
2021/07/11 10:25:29;;;;;;;3.30;1.77;;;;;;;;;;6213842;23;20445;-53
2021/07/11 10:28:04;;;;;;;3.08;1.90;;;;;;;;;;6213016;23;20448;-56
2021/07/11 10:30:31;;;;;;;2.83;2.00;;;;;;;;;;6213886;23;19997;-53
2021/07/11 10:33:07;;;;;;;2.05;1.85;;;;;;;;;;6214776;23;20008;-55
2021/07/11 10:35:33;;;;;;;3.20;2.28;;;;;;;;;;6215058;23;20120;-56
2021/07/11 10:37:59;;;;;;;3.08;2.13;;;;;;;;;;6214200;23;20062;-56
2021/07/11 10:40:30;;;;;;;3.38;1.90;;;;;;;;;;6214235;23;20003;-53
2021/07/11 10:42:56;;;;;;;2.45;1.95;;;;;;;;;;6214956;23;20333;-52
2021/07/11 10:45:23;;;;;;;2.10;1.90;;;;;;;;;;6214802;23;20075;-57
2021/07/11 10:47:50;;;;;;;3.75;2.03;;;;;;;;;;6214332;23;20059;-54
2021/07/11 10:50:23;;;;;;;2.88;1.90;;;;;;;;;;6214573;23;20023;-56
2021/07/11 10:52:50;;;;;;;2.03;1.70;;;;;;;;;;6215115;23;20318;-56
2021/07/11 10:55:16;;;;;;;2.28;2.05;;;;;;;;;;6214967;23;20003;-53
2021/07/11 10:57:42;;;;;;;1.88;1.70;;;;;;;;;;6214453;23;20003;-52
2021/07/11 11:00:08;;;;;;;3.47;1.80;;;;;;;;;;6214564;23;20000;-55
2021/07/11 11:02:34;;;;;;;2.30;1.90;;;;;;;;;;6214178;23;20005;-51
2021/07/11 11:05:10;;;;;;;3.78;1.90;;;;;;;;;;6214572;23;20360;-53
2021/07/11 11:07:53;;;;;;;5.75;2.40;;;;;;;;;;6214564;23;19997;-55
2021/07/11 11:10:20;;;;;;;2.63;1.80;;;;;;;;;;6214669;23;20084;-53
2021/07/11 11:12:46;;;;;;;4.20;1.75;;;;;;;;;;6214116;23;19997;-51
2021/07/11 11:15:15;;;;;;;2.65;1.70;;;;;;;;;;6214179;23;20039;-55
2021/07/11 11:17:41;;;;;;;5.43;1.77;;;;;;;;;;6212740;23;20055;-52
2021/07/11 11:20:08;;;;;;;4.05;1.70;;;;;;;;;;6212865;23;20080;-54
2021/07/11 11:22:35;;;;;;;3.15;1.98;;;;;;;;;;6213822;23;20418;-52
2021/07/11 11:25:02;;;;;;;2.05;1.63;;;;;;;;;;6214561;23;19996;-52
2021/07/11 11:27:38;;;;;;;2.83;1.70;;;;;;;;;;6214209;23;20092;-53
2021/07/11 11:30:12;;;;;;;1.98;1.63;;;;;;;;;;6187111;23;20011;-53
2021/07/11 11:32:38;;;;;;;3.55;1.52;;;;;;;;;;6214474;23;20362;-53
2021/07/11 11:35:04;;;;;;;3.25;1.55;;;;;;;;;;6213897;23;20062;-56
2021/07/11 11:37:32;;;;;;;2.63;1.55;;;;;;;;;;6214018;23;20078;-55
2021/07/11 11:40:03;;;;;;;2.50;1.80;;;;;;;;;;6213816;23;20391;-53
2021/07/11 11:42:29;;;;;;;3.08;1.70;;;;;;;;;;6214039;23;20666;-55
2021/07/11 11:45:03;;;;;;;2.15;1.60;;;;;;;;;;6214333;23;20007;-53
2021/07/11 11:47:29;;;;;;;2.65;1.67;;;;;;;;;;6212893;23;20011;-56
2021/07/11 11:49:55;;;;;;;3.63;1.58;;;;;;;;;;6213074;23;20016;-57
2021/07/11 11:52:21;;;;;;;2.97;1.90;;;;;;;;;;6213464;23;20004;-55
2021/07/11 11:54:47;;;;;;;4.47;1.92;;;;;;;;;;6213366;23;20384;-57
2021/07/11 11:57:13;;;;;;;1.75;1.65;;;;;;;;;;6213531;23;20131;-53
2021/07/11 11:59:39;;;;;;;4.05;1.60;;;;;;;;;;6213473;23;20036;-55
2021/07/11 12:02:08;;;;;;;1.90;1.50;;;;;;;;;;6214004;23;20008;-56
2021/07/11 12:04:34;;;;;;;5.03;1.50;;;;;;;;;;6214126;23;20283;-56
2021/07/11 12:07:01;;;;;;;1.75;1.42;;;;;;;;;;6214074;23;19996;-58
2021/07/11 12:09:28;;;;;;;3.58;1.98;;;;;;;;;;6213641;23;20608;-57
2021/07/11 12:12:08;;;;;;;2.35;1.73;;;;;;;;;;6213601;23;20079;-59
2021/07/11 12:14:35;;;;;;;3.72;1.88;;;;;;;;;;6213324;23;20305;-57
2021/07/11 12:17:03;;;;;;;3.15;1.98;;;;;;;;;;6214194;23;20476;-54
2021/07/11 12:19:30;;;;;;;4.35;1.88;;;;;;;;;;6212575;23;20390;-58
2021/07/11 12:21:57;;;;;;;3.38;1.60;;;;;;;;;;6214460;23;20005;-58
2021/07/11 12:24:24;;;;;;;3.95;1.60;;;;;;;;;;6214652;23;20376;-57
2021/07/11 12:26:54;;;;;;;5.38;1.85;;;;;;;;;;6214330;23;20024;-54
2021/07/11 12:29:27;;;;;;;5.60;1.60;;;;;;;;;;6213958;23;20051;-54
2021/07/11 12:32:02;;;;;;;1.75;1.50;;;;;;;;;;6216056;23;20035;-55
2021/07/11 12:34:29;;;;;;;2.60;1.83;;;;;;;;;;6216023;23;20400;-56
2021/07/11 12:36:57;;;;;;;1.90;1.45;;;;;;;;;;6208046;23;20027;-54
2021/07/11 12:39:24;;;;;;;3.05;1.73;;;;;;;;;;6215355;23;20035;-54
2021/07/11 12:41:50;;;;;;;2.85;1.40;;;;;;;;;;6215374;23;20083;-55
2021/07/11 12:44:18;;;;;;;2.13;1.48;;;;;;;;;;6215295;23;20072;-51
2021/07/11 12:46:44;;;;;;;1.77;1.40;;;;;;;;;;6215225;23;20076;-55
2021/07/11 12:49:14;;;;;;;3.03;1.48;;;;;;;;;;6213789;23;20179;-57
2021/07/11 12:51:51;;;;;;;1.90;1.50;;;;;;;;;;6214462;23;20433;-56
2021/07/11 12:54:21;;;;;;;1.45;1.33;;;;;;;;;;6215444;23;20004;-52
2021/07/11 12:56:58;;;;;;;1.40;1.30;;;;;;;;;;6215161;23;20005;-57
2021/07/11 12:59:35;;;;;;;1.92;1.73;;;;;;;;;;6214657;23;20004;-54
2021/07/11 13:02:08;;;;;;;1.88;1.33;;;;;;;;;;6215248;23;20008;-55
2021/07/11 13:04:35;;;;;;;2.15;1.30;;;;;;;;;;6215084;23;20050;-58
2021/07/11 13:07:06;;;;;;;3.30;1.23;;;;;;;;;;6213911;23;19997;-53
2021/07/11 13:09:32;;;;;;;2.13;1.60;;;;;;;;;;6213643;23;20005;-54
2021/07/11 13:11:58;;;;;;;1.65;1.33;;;;;;;;;;6214083;23;20005;-54
2021/07/11 13:14:24;;;;;;;2.90;1.23;;;;;;;;;;6214717;23;20070;-49
2021/07/11 13:16:51;;;;;;;1.80;1.38;;;;;;;;;;6215045;23;20000;-53
2021/07/11 13:19:17;;;;;;;4.50;0.98;;;;;;;;;;6214350;23;20051;-52
2021/07/11 13:21:43;;;;;;;2.70;1.30;;;;;;;;;;6214478;23;20050;-51
2021/07/11 13:24:09;;;;;;;1.45;1.15;;;;;;;;;;6213515;23;19997;-53
2021/07/11 13:26:35;;;;;;;2.85;1.10;;;;;;;;;;6213584;23;20020;-54
2021/07/11 13:29:01;;;;;;;2.55;1.42;;;;;;;;;;6213836;23;20004;-54
2021/07/11 13:31:28;;;;;;;2.58;1.33;;;;;;;;;;6213822;23;20440;-53
2021/07/11 13:33:55;;;;;;;1.67;1.40;;;;;;;;;;6213551;23;20000;-55
2021/07/11 13:36:21;;;;;;;1.63;1.10;;;;;;;;;;6213457;23;20074;-56
2021/07/11 13:38:47;;;;;;;3.80;1.73;;;;;;;;;;6212972;23;20000;-53
2021/07/11 13:41:13;;;;;;;1.85;1.20;;;;;;;;;;6214407;23;20004;-54
2021/07/11 13:43:39;;;;;;;2.05;1.25;;;;;;;;;;6213532;23;20003;-54
2021/07/11 13:46:05;;;;;;;7.03;2.03;;;;;;;;;;6214183;23;20009;-57
2021/07/11 13:48:32;;;;;;;2.45;1.35;;;;;;;;;;6213277;23;20511;-55
2021/07/11 13:50:58;;;;;;;1.65;1.33;;;;;;;;;;6214636;23;20020;-54
2021/07/11 13:53:25;;;;;;;3.00;0.85;;;;;;;;;;6213869;23;20024;-56
2021/07/11 13:55:51;;;;;;;2.50;0.90;;;;;;;;;;6213730;23;20007;-57
2021/07/11 13:58:17;;;;;;;4.18;1.50;;;;;;;;;;6213697;23;20088;-52
2021/07/11 14:00:43;;;;;;;1.40;1.00;;;;;;;;;;6213103;23;20035;-55
2021/07/11 14:03:10;;;;;;;1.05;0.93;;;;;;;;;;6213661;23;20005;-56
2021/07/11 14:05:36;;;;;;;4.72;1.02;;;;;;;;;;6212527;23;20072;-57
2021/07/11 14:09:28;;;;;;;1.00;0.90;;;;;;;;;;5095534;27;20311;-52
2021/07/11 14:11:54;;;;;;;3.35;1.00;;;;;;;;;;5099492;28;20032;-52
2021/07/11 14:14:20;;;;;;;1.77;0.85;;;;;;;;;;5100832;28;20020;-50
2021/07/11 14:16:46;;;;;;;0.82;0.80;;;;;;;;;;5097503;28;20016;-55
2021/07/11 14:19:12;;;;;;;1.38;1.23;;;;;;;;;;5096605;28;20460;-48
2021/07/11 14:21:39;;;;;;;1.70;1.45;;;;;;;;;;5096115;28;20020;-48
2021/07/11 14:24:06;;;;;;;5.18;0.95;;;;;;;;;;5098012;28;20038;-50
2021/07/11 14:26:32;;;;;;;1.92;0.90;;;;;;;;;;5100906;28;20480;-48
2021/07/11 14:28:58;;;;;;;2.30;1.20;;;;;;;;;;5097068;28;20043;-50
2021/07/11 14:31:24;;;;;;;2.80;1.08;;;;;;;;;;5091452;28;20472;-54
2021/07/11 14:33:50;;;;;;;2.03;1.10;;;;;;;;;;5097160;28;20066;-53
2021/07/11 14:36:16;;;;;;;2.65;1.30;;;;;;;;;;5086519;28;20076;-53
2021/07/11 14:38:42;;;;;;;2.35;1.35;;;;;;;;;;5083388;28;20032;-48